Duke Field,(Eglin Af Aux Nr 3) Airport
KEGI : rendu visible

Aérodrome :











RETROUVEZ-NOUS SUR...

 
LOGIN :

S'inscrire | Disclaimer

   EN    FR    IT 

 









Légende :    VFR   VFR Marginal   IFR   IFR Intensif   IFR Très Intensif
Visi : 
Plafond : 
>= 8 km
>= 3000ft
5 à 8 km
1000 à 3000 ft
1500m à 5 km
500 à 1000 ft
800 à 1500m
200 à 500 ft
< 800m
< 200 ft
Symboles :   Orages  Brouillard  Fortes neiges  Fortes précipitations  Vent > 20 kt






- Altitude de l'aérodrome : 191 ft


KEGI - Duke Field,(Eglin Af Aux Nr 3)

DERNIER METAR :
  • 210156Z AUTO 34007KT 10SM CLR 03/M05 A3038 RMK AO2 SLP290 T00311053 $

METARs EXPIRÉS :
  • 210056Z AUTO 34007KT 10SM CLR 04/M06 A3037 RMK AO2 SLP287 T00411057 $
  • 202356Z AUTO 35007KT 10SM CLR 05/M06 A3034 RMK AO2 SLP276 T00531057 10098 20053 52015 $

TAF TAF KEGI
Valide du 20 à 18h jusqu'au 22 à 00h UTC


201800Z 2018/2200 35012G18KT 9999 SKC QNH3030INS WND 36012KT AFT 2100
BECMG 2111/2112 01010G18KT 9999 FEW250 560609 561503 QNH3039INS
BECMG 2114/2115 35014G20KT 9999 FEW060 FEW250 QNH3032INS WND 36010G15KT AFT 2120 TX09/2020Z TN01/2112Z LAST NO AMDS AFT 2018 NEXT 2110



MET'MAP, la Météo Aéronautique d'un coup d'oeil ! - Copyright ORBIFLY Décembre 2007 - Disclaimer

ORBIFLY MET'MAP TEAM :

Programmation & Développement : Alexandra Zaïnal
Sur une idée originale de : Baudouin d'Aumeries
Assistance à la programmation : Marc-Olivier Méhu
Soutien technique & logistique : Manuel Goepfert

Contact : metmap@orbifly.com




SOURCES & CREDITS :

   NOAA       Earth
Advisory